createdAt,value
2023-04-28T00:01:48.636Z,98681.88
2023-04-28T00:04:55.033Z,98688.88
2023-04-28T00:08:04.174Z,98681.25
2023-04-28T00:11:13.552Z,98686.84
2023-04-28T00:14:19.950Z,98679.50
2023-04-28T00:17:25.756Z,98685.44
2023-04-28T00:20:32.333Z,98682.81
2023-04-28T00:23:40.553Z,98685.44
2023-04-28T00:26:46.871Z,98677.78
2023-04-28T00:29:53.369Z,98685.28
2023-04-28T00:33:00.143Z,98683.47
2023-04-28T00:36:05.804Z,98678.91
2023-04-28T00:39:15.175Z,98678.69
2023-04-28T00:42:20.697Z,98682.88
2023-04-28T00:45:27.349Z,98676.66
2023-04-28T00:48:32.910Z,98691.50
2023-04-28T00:51:39.259Z,98690.59
2023-04-28T00:54:48.021Z,98682.75
2023-04-28T00:57:55.203Z,98660.53
2023-04-28T01:01:07.397Z,98683.03
2023-04-28T01:04:14.090Z,98680.50
2023-04-28T01:07:21.396Z,98683.16
2023-04-28T01:10:30.588Z,98679.78
2023-04-28T01:13:41.077Z,98682.81
2023-04-28T01:16:48.590Z,98682.25
2023-04-28T01:19:56.157Z,98682.59
2023-04-28T01:23:02.036Z,98679.22
2023-04-28T01:26:11.339Z,98680.34
2023-04-28T01:29:16.938Z,98675.50
2023-04-28T01:32:23.321Z,98675.94
2023-04-28T01:35:29.167Z,98668.44
2023-04-28T01:38:35.464Z,98674.66
2023-04-28T01:41:43.933Z,98678.19
2023-04-28T01:44:50.961Z,98675.78
2023-04-28T01:47:56.424Z,98670.81
2023-04-28T01:51:02.738Z,98676.31
2023-04-28T01:54:09.176Z,98680.91
2023-04-28T01:57:19.168Z,98681.94
2023-04-28T02:00:27.452Z,98685.75
2023-04-28T02:03:34.058Z,98684.16
2023-04-28T02:06:41.555Z,98676.47
2023-04-28T02:09:47.940Z,98684.44
2023-04-28T02:12:56.246Z,98682.72
2023-04-28T02:16:04.682Z,98674.97
2023-04-28T02:19:10.790Z,98672.53
2023-04-28T02:22:17.180Z,98669.38
2023-04-28T02:25:22.911Z,98667.81
2023-04-28T02:28:31.984Z,98664.41
2023-04-28T02:31:37.838Z,98673.03
2023-04-28T02:34:45.605Z,98651.72
2023-04-28T02:37:51.199Z,98664.34
2023-04-28T02:41:02.974Z,98656.69
2023-04-28T02:44:11.569Z,98662.97
2023-04-28T02:47:17.927Z,98655.25
2023-04-28T02:50:23.968Z,98652.91
2023-04-28T02:53:30.791Z,98659.94
2023-04-28T02:56:37.362Z,98661.78
2023-04-28T02:59:47.276Z,98660.19
2023-04-28T03:02:52.859Z,98656.94
2023-04-28T03:05:59.926Z,98651.94
2023-04-28T03:09:05.473Z,98644.31
2023-04-28T03:12:12.747Z,98642.00
2023-04-28T03:15:21.454Z,98645.00
2023-04-28T03:18:27.854Z,98649.56
2023-04-28T03:21:34.541Z,98647.94
2023-04-28T03:24:40.874Z,98647.97
2023-04-28T03:27:46.583Z,98651.47
2023-04-28T03:30:55.722Z,98649.91
2023-04-28T03:34:01.497Z,98648.34
2023-04-28T03:37:08.139Z,98642.41
2023-04-28T03:40:15.233Z,98645.19
2023-04-28T03:43:39.319Z,98645.31
2023-04-28T03:47:04.557Z,98643.59
2023-04-28T03:50:12.417Z,98641.97
2023-04-28T03:53:17.966Z,98641.91
2023-04-28T03:56:24.992Z,98637.53
2023-04-28T03:59:30.629Z,98637.59
2023-04-28T04:02:40.347Z,98648.13
2023-04-28T04:05:46.240Z,98643.84
2023-04-28T04:08:53.001Z,98640.19
2023-04-28T04:11:59.047Z,98640.09
2023-04-28T04:15:05.715Z,98651.97
2023-04-28T04:18:15.125Z,98649.91
2023-04-28T04:21:40.195Z,98656.84
2023-04-28T04:24:46.364Z,98660.00
2023-04-28T04:27:54.087Z,98663.28
2023-04-28T04:30:59.937Z,98666.41
2023-04-28T04:34:09.063Z,98669.44
2023-04-28T04:37:15.295Z,98667.25
2023-04-28T04:40:31.402Z,98665.06
2023-04-28T04:43:38.149Z,98668.03
2023-04-28T04:46:44.593Z,98664.91
2023-04-28T04:49:54.210Z,98670.44
2023-04-28T04:53:00.635Z,98668.22
2023-04-28T04:56:06.808Z,98663.31
2023-04-28T04:59:15.014Z,98664.59
2023-04-28T05:03:13.742Z,98663.34
2023-04-28T05:06:25.198Z,98663.84
2023-04-28T05:09:32.360Z,98670.38
2023-04-28T05:12:39.625Z,98666.53
2023-04-28T05:15:45.190Z,98663.38
2023-04-28T05:19:03.374Z,98669.56
2023-04-28T05:22:12.674Z,98669.50
2023-04-28T05:25:19.403Z,98671.06
2023-04-28T05:28:28.132Z,98666.69
2023-04-28T05:31:35.301Z,98657.66
2023-04-28T05:34:41.620Z,98662.69
2023-04-28T05:37:50.881Z,98654.78
2023-04-28T05:40:56.452Z,98669.09
2023-04-28T05:44:02.861Z,98660.13
2023-04-28T05:47:08.832Z,98659.97
2023-04-28T05:50:15.426Z,98668.50
2023-04-28T05:53:24.721Z,98662.41
2023-04-28T05:56:32.368Z,98666.81
2023-04-28T05:59:38.929Z,98522.84
2023-04-28T06:02:45.702Z,98661.88
2023-04-28T06:05:51.879Z,98654.22
2023-04-28T06:09:01.675Z,98651.81
2023-04-28T06:12:08.184Z,98663.31
2023-04-28T06:15:15.369Z,98670.09
2023-04-28T06:18:21.050Z,98667.31
2023-04-28T06:21:29.025Z,98661.19
2023-04-28T06:24:38.589Z,98655.47
2023-04-28T06:27:48.752Z,98655.56
2023-04-28T06:30:54.266Z,98659.31
2023-04-28T06:34:00.677Z,98655.00
2023-04-28T06:37:07.429Z,98657.81
2023-04-28T06:40:17.332Z,98660.81
2023-04-28T06:43:29.966Z,98654.34
2023-04-28T06:46:46.098Z,98659.84
2023-04-28T06:49:51.939Z,98661.94
2023-04-28T06:52:59.090Z,98658.06
2023-04-28T06:56:11.876Z,98657.03
2023-04-28T06:59:18.459Z,98650.63
2023-04-28T07:02:24.240Z,98652.13
2023-04-28T07:05:30.966Z,98651.75
2023-04-28T07:08:38.076Z,98647.81
2023-04-28T07:11:47.415Z,98637.81
2023-04-28T07:14:53.498Z,98620.41
2023-04-28T07:17:59.950Z,98632.91
2023-04-28T07:21:05.738Z,98639.44
2023-04-28T07:24:12.282Z,98631.34
2023-04-28T07:27:20.787Z,98628.50
2023-04-28T07:30:28.300Z,98625.47
2023-04-28T07:33:34.215Z,98624.13
2023-04-28T07:36:40.998Z,98623.94
2023-04-28T07:39:46.824Z,98607.88
2023-04-28T07:42:56.275Z,98615.28
2023-04-28T07:46:02.132Z,98610.06
2023-04-28T07:49:08.700Z,98613.63
2023-04-28T07:52:14.562Z,98613.97
2023-04-28T07:55:21.150Z,98611.78
2023-04-28T07:58:29.535Z,98510.84
2023-04-28T08:01:36.133Z,98605.31
2023-04-28T08:04:42.235Z,98599.72
2023-04-28T08:07:48.688Z,98592.34
2023-04-28T08:10:55.262Z,98595.63
2023-04-28T08:14:04.604Z,98593.41
2023-04-28T08:17:10.334Z,98590.47
2023-04-28T08:20:21.663Z,98584.94
2023-04-28T08:23:32.224Z,98581.56
2023-04-28T08:26:38.790Z,98581.16
2023-04-28T08:29:47.368Z,98583.13
2023-04-28T08:32:54.381Z,98581.00
2023-04-28T08:36:00.086Z,98572.44
2023-04-28T08:39:08.860Z,98565.25
2023-04-28T08:42:15.074Z,98571.03
2023-04-28T08:45:28.472Z,98570.72
2023-04-28T08:48:44.025Z,98563.63
2023-04-28T08:51:58.760Z,98567.97
2023-04-28T08:55:10.115Z,98554.97
2023-04-28T08:58:18.152Z,98567.97
2023-04-28T09:01:26.526Z,98565.44
2023-04-28T09:04:33.564Z,98552.13
2023-04-28T09:07:39.656Z,98558.13
2023-04-28T09:10:46.229Z,98552.41
2023-04-28T09:13:51.690Z,98552.28
2023-04-28T09:17:01.228Z,98525.69
2023-04-28T09:20:22.870Z,98545.72
2023-04-28T09:23:29.244Z,98547.19
2023-04-28T09:26:55.365Z,98540.50
2023-04-28T09:30:03.147Z,98534.63
2023-04-28T09:33:11.724Z,98541.28
2023-04-28T09:36:31.886Z,98537.97
2023-04-28T09:39:37.502Z,98523.81
2023-04-28T09:42:48.275Z,98518.97
2023-04-28T09:45:53.822Z,98524.69
2023-04-28T09:49:07.229Z,98522.78
2023-04-28T09:52:16.782Z,98507.31
2023-04-28T09:55:24.448Z,98509.59
2023-04-28T09:58:33.254Z,98512.25
2023-04-28T10:01:44.487Z,98469.59
2023-04-28T10:04:54.748Z,98483.13
2023-04-28T10:08:01.753Z,98491.59
2023-04-28T10:11:08.853Z,98491.84
2023-04-28T10:14:16.444Z,98487.41
2023-04-28T10:17:22.436Z,98483.13
2023-04-28T10:20:34.161Z,98477.84
2023-04-28T10:24:18.252Z,98465.00
2023-04-28T10:27:34.151Z,98474.13
2023-04-28T10:30:39.931Z,98475.03
2023-04-28T10:33:46.723Z,98470.16
2023-04-28T10:36:58.204Z,98455.09
2023-04-28T10:40:36.212Z,98445.88
2023-04-28T10:43:42.941Z,98447.53
2023-04-28T10:47:05.128Z,98442.63
2023-04-28T10:50:14.426Z,98389.41
2023-04-28T10:53:23.536Z,98429.03
2023-04-28T10:56:30.848Z,98417.47
2023-04-28T10:59:37.437Z,98416.47
2023-04-28T11:02:46.475Z,98419.84
2023-04-28T11:06:24.051Z,98403.94
2023-04-28T11:09:55.666Z,98408.00
2023-04-28T11:13:34.553Z,98405.53
2023-04-28T11:16:54.220Z,98410.31
2023-04-28T11:20:04.713Z,98400.22
2023-04-28T11:23:14.044Z,98396.03
2023-04-28T11:26:24.304Z,98382.88
2023-04-28T11:29:38.892Z,98393.97
2023-04-28T11:32:45.973Z,98385.19
2023-04-28T11:35:51.632Z,98374.59
2023-04-28T11:38:59.412Z,98377.41
2023-04-28T11:42:14.478Z,98382.72
2023-04-28T11:45:21.457Z,98376.31
2023-04-28T11:48:27.078Z,98370.31
2023-04-28T11:51:42.138Z,98345.25
2023-04-28T11:54:48.456Z,98376.59
2023-04-28T11:58:25.550Z,98364.88
2023-04-28T12:01:31.212Z,98369.03
2023-04-28T12:04:40.656Z,98339.38
2023-04-28T12:07:48.077Z,98352.28
2023-04-28T12:11:13.304Z,98358.84
2023-04-28T12:14:22.815Z,98355.78
2023-04-28T12:17:31.102Z,98341.28
2023-04-28T12:20:42.954Z,98334.34
2023-04-28T12:23:49.480Z,98333.50
2023-04-28T12:26:55.177Z,98318.72
2023-04-28T12:30:04.958Z,98332.75
2023-04-28T12:33:27.416Z,98330.69
2023-04-28T12:36:34.304Z,98328.03
2023-04-28T12:39:43.501Z,98298.38
2023-04-28T12:42:50.420Z,98310.28
2023-04-28T12:45:58.881Z,98300.69
2023-04-28T12:49:05.942Z,98295.69
2023-04-28T12:52:11.537Z,98293.72
2023-04-28T12:55:18.015Z,98296.25
2023-04-28T12:58:23.734Z,98295.44
2023-04-28T13:01:33.546Z,98282.59
2023-04-28T13:04:39.709Z,98285.22
2023-04-28T13:07:46.575Z,98281.44
2023-04-28T13:10:52.202Z,98273.06
2023-04-28T13:13:58.902Z,98273.59
2023-04-28T13:17:08.404Z,98274.44
2023-04-28T13:20:15.690Z,98262.72
2023-04-28T13:23:21.373Z,98257.69
2023-04-28T13:26:28.180Z,98257.69
2023-04-28T13:29:34.012Z,98256.56
2023-04-28T13:32:43.310Z,98245.50
2023-04-28T13:35:49.038Z,98244.53
2023-04-28T13:38:55.826Z,98244.78
2023-04-28T13:42:02.017Z,98251.78
2023-04-28T13:45:10.076Z,98245.63
2023-04-28T13:48:18.714Z,98235.22
2023-04-28T13:51:25.165Z,98239.97
2023-04-28T13:54:31.395Z,98228.22
2023-04-28T13:57:38.089Z,98228.34
2023-04-28T14:00:43.778Z,98218.41
2023-04-28T14:03:53.253Z,98223.97
2023-04-28T14:06:59.199Z,98222.50
2023-04-28T14:10:06.387Z,98221.91
2023-04-28T14:13:12.318Z,98209.31
2023-04-28T14:16:18.987Z,98214.03
2023-04-28T14:19:28.365Z,98200.34
2023-04-28T14:22:34.921Z,98205.66
2023-04-28T14:25:41.305Z,98207.88
2023-04-28T14:28:49.452Z,98201.13
2023-04-28T14:31:55.158Z,98198.75
2023-04-28T14:35:06.252Z,98194.13
2023-04-28T14:38:14.098Z,98189.31
2023-04-28T14:41:21.347Z,98193.44
2023-04-28T14:44:29.993Z,98190.34
2023-04-28T14:47:39.110Z,98185.84
2023-04-28T14:50:47.937Z,98190.25
2023-04-28T14:53:54.774Z,98177.63
2023-04-28T14:57:00.503Z,98196.41
2023-04-28T15:00:08.874Z,98195.75
2023-04-28T15:03:15.769Z,98182.66
2023-04-28T15:06:25.569Z,98189.66
2023-04-28T15:09:31.803Z,98185.31
2023-04-28T15:12:38.421Z,98187.97
2023-04-28T15:15:44.320Z,98185.00
2023-04-28T15:18:50.970Z,98164.25
2023-04-28T15:21:59.555Z,98172.66
2023-04-28T15:25:06.284Z,98168.34
2023-04-28T15:28:12.017Z,98170.47
2023-04-28T15:31:18.649Z,98171.81
2023-04-28T15:34:24.560Z,98167.13
2023-04-28T15:37:55.825Z,98157.31
2023-04-28T15:41:01.756Z,98157.91
2023-04-28T15:44:08.676Z,98154.63
2023-04-28T15:47:14.272Z,98149.34
2023-04-28T15:50:20.924Z,98142.13
2023-04-28T15:53:29.618Z,98140.78
2023-04-28T15:56:37.133Z,98125.97
2023-04-28T15:59:42.958Z,98138.13
2023-04-28T16:02:49.620Z,98140.47
2023-04-28T16:05:57.433Z,98129.28
2023-04-28T16:09:07.651Z,98131.31
2023-04-28T16:12:13.430Z,98127.53
2023-04-28T16:15:20.036Z,98125.03
2023-04-28T16:18:25.804Z,98124.19
2023-04-28T16:21:33.573Z,98132.88
2023-04-28T16:24:44.362Z,98135.22
2023-04-28T16:27:51.286Z,98122.16
2023-04-28T16:30:57.427Z,98124.34
2023-04-28T16:34:04.298Z,98114.47
2023-04-28T16:37:11.918Z,98117.13
2023-04-28T16:40:22.353Z,98095.88
2023-04-28T16:43:28.199Z,98107.59
2023-04-28T16:46:35.145Z,98105.41
2023-04-28T16:49:41.195Z,98099.34
2023-04-28T16:52:47.788Z,98110.16
2023-04-28T16:55:56.270Z,98104.34
2023-04-28T16:59:02.884Z,98108.44
2023-04-28T17:02:09.338Z,98103.09
2023-04-28T17:05:17.702Z,98099.97
2023-04-28T17:08:23.598Z,98101.22
2023-04-28T17:11:33.399Z,98098.34
2023-04-28T17:14:41.920Z,98096.94
2023-04-28T17:17:52.495Z,98098.09
2023-04-28T17:21:02.796Z,98095.03
2023-04-28T17:24:09.855Z,98091.97
2023-04-28T17:27:18.307Z,98093.69
2023-04-28T17:30:26.255Z,98092.56
2023-04-28T17:33:32.220Z,98094.28
2023-04-28T17:36:38.969Z,98103.84
2023-04-28T17:39:44.748Z,98097.44
2023-04-28T17:42:55.497Z,98107.38
2023-04-28T17:46:04.939Z,98107.50
2023-04-28T17:49:15.641Z,98121.06
2023-04-28T17:52:21.908Z,98124.03
2023-04-28T17:55:29.056Z,98119.88
2023-04-28T17:58:37.884Z,98123.53
2023-04-28T18:01:44.746Z,98123.22
2023-04-28T18:04:51.517Z,98128.81
2023-04-28T18:08:00.138Z,98130.47
2023-04-28T18:11:07.368Z,98124.59
2023-04-28T18:14:18.687Z,98134.09
2023-04-28T18:17:26.438Z,98131.00
2023-04-28T18:20:33.694Z,98123.69
2023-04-28T18:23:42.682Z,98127.03
2023-04-28T18:26:49.329Z,98134.75
2023-04-28T18:29:58.141Z,98134.34
2023-04-28T18:33:05.931Z,98135.59
2023-04-28T18:36:11.846Z,98132.50
2023-04-28T18:39:19.543Z,98141.38
2023-04-28T18:42:27.592Z,98140.78
2023-04-28T18:45:43.110Z,98138.00
2023-04-28T18:48:50.565Z,98141.94
2023-04-28T18:51:58.785Z,98141.81
2023-04-28T18:55:04.593Z,98139.97
2023-04-28T18:58:12.064Z,98148.91
2023-04-28T19:01:22.286Z,98150.56
2023-04-28T19:04:31.140Z,98152.25
2023-04-28T19:07:37.854Z,98154.91
2023-04-28T19:10:44.656Z,98146.97
2023-04-28T19:14:00.774Z,98153.97
2023-04-28T19:17:19.319Z,98162.88
2023-04-28T19:20:33.236Z,98163.72
2023-04-28T19:23:43.570Z,98162.88
2023-04-28T19:26:50.916Z,98155.88
2023-04-28T19:29:59.728Z,98158.53
2023-04-28T19:33:08.765Z,98157.81
2023-04-28T19:36:18.072Z,98150.28
2023-04-28T19:39:24.059Z,98155.00
2023-04-28T19:42:32.466Z,98148.28
2023-04-28T19:45:43.554Z,98144.63
2023-04-28T19:48:55.812Z,98146.25
2023-04-28T19:52:02.194Z,98138.81
2023-04-28T19:55:18.965Z,98144.63
2023-04-28T19:58:25.352Z,98135.78
2023-04-28T20:01:32.424Z,98139.44
2023-04-28T20:04:42.298Z,98136.16
2023-04-28T20:07:49.535Z,98132.00
2023-04-28T20:10:58.618Z,98127.59
2023-04-28T20:14:05.543Z,98126.44
2023-04-28T20:17:12.787Z,98130.78
2023-04-28T20:20:22.622Z,98125.28
2023-04-28T20:23:30.849Z,98133.97
2023-04-28T20:26:38.244Z,98129.44
2023-04-28T20:29:44.434Z,98125.06
2023-04-28T20:32:52.790Z,98125.84
2023-04-28T20:36:02.164Z,98128.47
2023-04-28T20:39:11.361Z,98136.16
2023-04-28T20:42:17.714Z,98138.47
2023-04-28T20:45:25.243Z,98130.16
2023-04-28T20:48:31.454Z,98127.06
2023-04-28T20:51:42.197Z,98130.44
2023-04-28T20:54:48.220Z,98127.78
2023-04-28T20:57:54.995Z,98128.97
2023-04-28T21:01:01.251Z,98120.81
2023-04-28T21:04:09.885Z,98118.03
2023-04-28T21:07:18.594Z,98114.03
2023-04-28T21:10:25.235Z,98114.63
2023-04-28T21:13:31.952Z,98110.66
2023-04-28T21:16:38.804Z,98108.34
2023-04-28T21:19:44.936Z,98112.91
2023-04-28T21:22:54.848Z,98110.63
2023-04-28T21:26:00.653Z,98107.38
2023-04-28T21:29:09.346Z,98113.13
2023-04-28T21:32:15.165Z,98103.03
2023-04-28T21:35:22.731Z,98110.44
2023-04-28T21:38:31.330Z,98112.81
2023-04-28T21:41:38.804Z,98106.44
2023-04-28T21:44:44.692Z,98102.44
2023-04-28T21:47:51.122Z,98096.34
2023-04-28T21:50:57.192Z,98097.31
2023-04-28T21:54:06.427Z,98093.50
2023-04-28T21:57:12.055Z,98088.22
2023-04-28T22:00:18.444Z,98092.78
2023-04-28T22:03:24.607Z,98097.63
2023-04-28T22:06:31.355Z,98093.06
2023-04-28T22:09:40.218Z,98091.06
2023-04-28T22:12:46.995Z,98092.34
2023-04-28T22:15:52.892Z,98094.53
2023-04-28T22:19:00.179Z,98090.81
2023-04-28T22:22:05.874Z,98093.38
2023-04-28T22:25:15.268Z,98087.13
2023-04-28T22:28:22.920Z,98094.81
2023-04-28T22:31:29.362Z,98090.88
2023-04-28T22:34:34.957Z,98082.59
2023-04-28T22:37:41.341Z,98078.16
2023-04-28T22:40:50.505Z,98082.34
2023-04-28T22:43:56.786Z,98082.59
2023-04-28T22:47:02.778Z,98077.94
2023-04-28T22:50:12.057Z,98072.41
2023-04-28T22:53:18.164Z,98077.56
2023-04-28T22:56:27.890Z,98073.97
2023-04-28T22:59:33.408Z,98067.72
2023-04-28T23:02:39.942Z,98067.72
2023-04-28T23:05:45.590Z,98064.16
2023-04-28T23:08:51.941Z,98069.66
2023-04-28T23:12:00.244Z,98069.66
2023-04-28T23:15:07.777Z,98061.25
2023-04-28T23:18:13.324Z,98058.84
2023-04-28T23:21:19.897Z,98058.13
2023-04-28T23:24:26.868Z,98059.31
2023-04-28T23:27:36.024Z,98051.41
2023-04-28T23:30:41.621Z,98051.66
2023-04-28T23:33:47.906Z,98056.94
2023-04-28T23:36:53.585Z,98048.03
2023-04-28T23:40:00.136Z,98039.63
2023-04-28T23:43:08.501Z,98036.50
2023-04-28T23:46:14.907Z,98029.81
2023-04-28T23:49:21.300Z,98011.09
2023-04-28T23:52:27.629Z,98033.53
2023-04-28T23:55:33.297Z,98025.94
2023-04-28T23:58:42.484Z,98030.50
